createdAt,value
2023-05-06T00:02:21.169Z,15.30
2023-05-06T00:04:52.308Z,16.73
2023-05-06T00:07:23.232Z,15.73
2023-05-06T00:09:56.776Z,14.20
2023-05-06T00:12:27.626Z,18.17
2023-05-06T00:14:58.364Z,20.90
2023-05-06T00:17:29.135Z,19.17
2023-05-06T00:20:00.039Z,16.20
2023-05-06T00:22:30.938Z,19.67
2023-05-06T00:25:04.273Z,15.50
2023-05-06T00:27:35.215Z,17.90
2023-05-06T00:30:06.003Z,17.02
2023-05-06T00:32:37.302Z,18.85
2023-05-06T00:35:09.574Z,16.25
2023-05-06T00:37:41.106Z,17.30
2023-05-06T00:40:15.630Z,14.20
2023-05-06T00:42:46.529Z,14.70
2023-05-06T00:45:17.319Z,15.30
2023-05-06T00:47:48.430Z,14.32
2023-05-06T00:50:19.378Z,16.52
2023-05-06T00:52:50.699Z,14.25
2023-05-06T00:55:24.755Z,14.73
2023-05-06T00:57:55.995Z,15.35
2023-05-06T01:00:27.118Z,16.83
2023-05-06T01:02:58.015Z,16.45
2023-05-06T01:05:50.138Z,17.20
2023-05-06T01:08:28.592Z,19.25
2023-05-06T01:11:08.600Z,16.65
2023-05-06T01:13:45.998Z,15.50
2023-05-06T01:16:19.109Z,15.20
2023-05-06T01:18:52.335Z,17.73
2023-05-06T01:21:27.147Z,15.20
2023-05-06T01:24:01.416Z,16.33
2023-05-06T01:26:32.382Z,14.90
2023-05-06T01:29:04.600Z,15.75
2023-05-06T01:31:41.325Z,19.75
2023-05-06T01:34:21.221Z,14.02
2023-05-06T01:37:01.693Z,15.70
2023-05-06T01:39:36.735Z,14.90
2023-05-06T01:42:09.212Z,16.33
2023-05-06T01:44:43.956Z,14.50
2023-05-06T01:47:16.342Z,15.73
2023-05-06T01:49:47.240Z,15.70
2023-05-06T01:52:19.392Z,15.10
2023-05-06T01:54:52.774Z,14.63
2023-05-06T01:57:23.456Z,16.75
2023-05-06T01:59:55.089Z,14.23
2023-05-06T02:02:28.252Z,17.23
2023-05-06T02:04:59.262Z,16.00
2023-05-06T02:07:30.222Z,14.73
2023-05-06T02:10:03.964Z,14.90
2023-05-06T02:12:37.299Z,15.60
2023-05-06T02:15:09.664Z,15.48
2023-05-06T02:17:41.711Z,14.77
2023-05-06T02:20:13.040Z,14.55
2023-05-06T02:22:44.449Z,14.48
2023-05-06T02:25:18.047Z,14.38
2023-05-06T02:27:49.517Z,15.27
2023-05-06T02:30:20.896Z,15.50
2023-05-06T02:32:52.236Z,13.95
2023-05-06T02:35:23.123Z,14.60
2023-05-06T02:37:54.244Z,15.75
2023-05-06T02:40:27.669Z,13.02
2023-05-06T02:42:58.421Z,15.82
2023-05-06T02:45:29.870Z,13.65
2023-05-06T02:48:00.958Z,14.63
2023-05-06T02:50:31.833Z,15.70
2023-05-06T02:53:02.662Z,16.75
2023-05-06T02:55:36.229Z,16.92
2023-05-06T02:58:07.011Z,14.48
2023-05-06T03:00:37.846Z,16.23
2023-05-06T03:03:08.670Z,15.45
2023-05-06T03:05:39.610Z,14.70
2023-05-06T03:08:10.346Z,14.70
2023-05-06T03:10:43.729Z,15.70
2023-05-06T03:13:14.515Z,17.52
2023-05-06T03:15:45.430Z,16.85
2023-05-06T03:18:16.331Z,18.95
2023-05-06T03:20:47.710Z,15.82
2023-05-06T03:23:19.006Z,16.13
2023-05-06T03:25:52.770Z,14.85
2023-05-06T03:28:24.568Z,19.85
2023-05-06T03:30:56.377Z,15.77
2023-05-06T03:33:27.588Z,17.13
2023-05-06T03:35:58.253Z,16.30
2023-05-06T03:38:29.185Z,17.85
2023-05-06T03:41:07.966Z,15.45
2023-05-06T03:43:39.081Z,16.40
2023-05-06T03:46:10.328Z,15.18
2023-05-06T03:48:41.303Z,18.95
2023-05-06T03:51:16.148Z,15.95
2023-05-06T03:53:47.127Z,18.02
2023-05-06T03:56:22.203Z,15.05
2023-05-06T03:58:56.176Z,16.65
2023-05-06T04:01:29.142Z,15.93
2023-05-06T04:03:59.906Z,16.58
2023-05-06T04:06:30.998Z,14.55
2023-05-06T04:09:01.856Z,14.45
2023-05-06T04:11:35.433Z,15.25
2023-05-06T04:14:07.906Z,15.75
2023-05-06T04:16:39.619Z,15.07
2023-05-06T04:19:10.713Z,21.10
2023-05-06T04:21:42.560Z,14.68
2023-05-06T04:24:16.469Z,12.38
2023-05-06T04:26:49.914Z,17.45
2023-05-06T04:29:20.946Z,14.60
2023-05-06T04:32:08.074Z,15.23
2023-05-06T04:34:39.931Z,15.63
2023-05-06T04:37:14.048Z,16.50
2023-05-06T04:39:50.126Z,22.40
2023-05-06T04:42:23.660Z,15.38
2023-05-06T04:45:09.970Z,13.38
2023-05-06T04:47:42.274Z,15.73
2023-05-06T04:50:14.299Z,13.70
2023-05-06T04:52:46.005Z,12.35
2023-05-06T04:55:18.502Z,17.27
2023-05-06T05:00:27.878Z,14.40
2023-05-06T05:02:58.879Z,15.82
2023-05-06T05:05:30.772Z,14.48
2023-05-06T05:08:02.534Z,13.48
2023-05-06T05:10:36.668Z,11.30
2023-05-06T05:13:11.110Z,10.40
2023-05-06T05:15:42.036Z,13.35
2023-05-06T05:18:13.609Z,13.32
2023-05-06T05:20:44.525Z,13.18
2023-05-06T05:23:17.392Z,12.52
2023-05-06T05:25:49.370Z,12.98
2023-05-06T05:28:23.104Z,9.45
2023-05-06T05:30:54.792Z,13.83
2023-05-06T05:33:26.148Z,10.73
2023-05-06T05:35:57.109Z,12.10
2023-05-06T05:38:28.034Z,12.48
2023-05-06T05:40:59.511Z,12.32
2023-05-06T05:43:35.940Z,7.90
2023-05-06T05:46:08.270Z,12.07
2023-05-06T05:48:40.476Z,12.48
2023-05-06T05:51:11.769Z,10.82
2023-05-06T05:53:43.113Z,13.30
2023-05-06T05:56:13.885Z,13.48
2023-05-06T05:58:48.012Z,12.52
2023-05-06T06:01:18.930Z,10.00
2023-05-06T06:03:50.827Z,8.77
2023-05-06T06:06:21.713Z,9.88
2023-05-06T06:08:53.245Z,10.60
2023-05-06T06:11:25.703Z,10.30
2023-05-06T06:13:59.520Z,11.60
2023-05-06T06:16:30.988Z,10.23
2023-05-06T06:19:02.019Z,14.07
2023-05-06T06:21:33.015Z,9.40
2023-05-06T06:24:05.117Z,10.10
2023-05-06T06:26:35.920Z,13.43
2023-05-06T06:29:09.366Z,13.18
2023-05-06T06:31:40.777Z,7.75
2023-05-06T06:34:13.100Z,11.10
2023-05-06T06:36:45.714Z,10.07
2023-05-06T06:39:16.898Z,8.98
2023-05-06T06:41:47.623Z,8.02
2023-05-06T06:44:21.043Z,15.32
2023-05-06T06:46:51.786Z,9.20
2023-05-06T06:49:22.824Z,9.93
2023-05-06T06:51:57.089Z,8.95
2023-05-06T06:54:28.223Z,9.13
2023-05-06T06:56:59.153Z,12.57
2023-05-06T06:59:32.680Z,11.30
2023-05-06T07:02:03.395Z,12.02
2023-05-06T07:04:34.190Z,10.85
2023-05-06T07:07:04.989Z,11.32
2023-05-06T07:09:36.490Z,7.97
2023-05-06T07:12:08.850Z,8.77
2023-05-06T07:14:42.283Z,7.28
2023-05-06T07:17:13.004Z,9.10
2023-05-06T07:19:43.779Z,9.73
2023-05-06T07:22:14.476Z,9.25
2023-05-06T07:24:45.203Z,10.30
2023-05-06T07:27:15.955Z,14.95
2023-05-06T07:29:49.457Z,8.90
2023-05-06T07:32:20.521Z,16.00
2023-05-06T07:34:51.269Z,12.63
2023-05-06T07:37:22.075Z,13.43
2023-05-06T07:39:52.947Z,10.20
2023-05-06T07:42:23.675Z,11.55
2023-05-06T07:44:57.072Z,6.72
2023-05-06T07:47:32.772Z,6.60
2023-05-06T07:50:05.321Z,7.90
2023-05-06T07:52:36.363Z,6.78
2023-05-06T07:55:09.361Z,10.98
2023-05-06T07:57:40.333Z,13.18
2023-05-06T08:00:14.903Z,7.15
2023-05-06T08:02:48.993Z,8.02
2023-05-06T08:05:19.728Z,7.88
2023-05-06T08:07:50.650Z,6.18
2023-05-06T08:10:22.498Z,11.85
2023-05-06T08:12:53.302Z,10.93
2023-05-06T08:15:26.890Z,9.23
2023-05-06T08:18:02.179Z,10.10
2023-05-06T08:20:38.138Z,10.23
2023-05-06T08:23:08.777Z,10.00
2023-05-06T08:25:39.553Z,9.20
2023-05-06T08:28:10.227Z,10.90
2023-05-06T08:30:43.630Z,13.82
2023-05-06T08:33:14.368Z,11.52
2023-05-06T08:35:45.165Z,11.32
2023-05-06T08:38:15.797Z,11.93
2023-05-06T08:40:48.228Z,12.80
2023-05-06T08:43:23.030Z,14.32
2023-05-06T08:45:57.805Z,11.10
2023-05-06T08:48:30.293Z,11.25
2023-05-06T08:51:06.332Z,10.95
2023-05-06T08:53:37.722Z,6.97
2023-05-06T08:56:11.868Z,8.93
2023-05-06T08:58:47.367Z,6.95
2023-05-06T09:01:20.765Z,8.13
2023-05-06T09:03:52.146Z,10.15
2023-05-06T09:06:23.147Z,9.02
2023-05-06T09:08:54.159Z,8.27
2023-05-06T09:11:27.091Z,6.38
2023-05-06T09:14:11.999Z,9.65
2023-05-06T09:16:47.362Z,9.27
2023-05-06T09:19:18.944Z,11.90
2023-05-06T09:21:50.918Z,10.32
2023-05-06T09:24:22.180Z,13.15
2023-05-06T09:26:55.596Z,10.20
2023-05-06T09:29:26.558Z,9.15
2023-05-06T09:31:59.966Z,6.97
2023-05-06T09:34:31.018Z,10.23
2023-05-06T09:37:01.745Z,9.57
2023-05-06T09:39:32.651Z,9.65
2023-05-06T09:42:03.720Z,5.45
2023-05-06T09:44:35.061Z,9.00
2023-05-06T09:47:09.399Z,6.40
2023-05-06T09:49:40.205Z,10.33
2023-05-06T09:52:11.137Z,10.35
2023-05-06T09:54:43.782Z,9.32
2023-05-06T09:57:17.485Z,9.15
2023-05-06T09:59:49.113Z,12.95
2023-05-06T10:02:23.576Z,7.95
2023-05-06T10:04:57.798Z,6.47
2023-05-06T10:07:31.851Z,12.03
2023-05-06T10:10:04.244Z,7.18
2023-05-06T10:12:39.546Z,9.75
2023-05-06T10:15:12.279Z,7.85
2023-05-06T10:17:49.217Z,7.45
2023-05-06T10:20:20.599Z,11.07
2023-05-06T10:23:04.741Z,8.57
2023-05-06T10:25:40.482Z,11.82
2023-05-06T10:28:18.818Z,7.82
2023-05-06T10:31:02.034Z,12.45
2023-05-06T10:33:36.043Z,11.55
2023-05-06T10:36:16.972Z,10.38
2023-05-06T10:38:49.604Z,10.93
2023-05-06T10:41:22.591Z,10.35
2023-05-06T10:43:57.268Z,7.53
2023-05-06T10:46:29.334Z,8.38
2023-05-06T10:49:23.304Z,6.72
2023-05-06T10:52:17.359Z,7.22
2023-05-06T10:54:52.559Z,10.70
2023-05-06T10:59:58.352Z,10.18
2023-05-06T11:02:29.299Z,8.02
2023-05-06T11:05:07.714Z,6.28
2023-05-06T11:07:39.352Z,7.18
2023-05-06T11:10:14.397Z,7.78
2023-05-06T11:15:31.056Z,7.57
2023-05-06T11:18:02.018Z,9.55
2023-05-06T11:20:35.454Z,9.25
2023-05-06T11:23:06.234Z,13.52
2023-05-06T11:25:43.372Z,11.45
2023-05-06T11:28:14.928Z,7.47
2023-05-06T11:30:47.706Z,9.43
2023-05-06T11:33:22.240Z,8.30
2023-05-06T11:35:56.518Z,9.73
2023-05-06T11:38:27.276Z,10.47
2023-05-06T11:40:58.678Z,9.02
2023-05-06T11:43:29.475Z,9.05
2023-05-06T11:46:02.781Z,9.55
2023-05-06T11:48:34.296Z,7.82
2023-05-06T11:51:08.567Z,6.88
2023-05-06T11:53:39.313Z,8.47
2023-05-06T11:56:10.939Z,8.70
2023-05-06T11:58:41.705Z,6.55
2023-05-06T12:01:13.137Z,10.02
2023-05-06T12:03:44.031Z,11.55
2023-05-06T12:06:19.435Z,8.50
2023-05-06T12:08:50.237Z,7.70
2023-05-06T12:11:21.413Z,10.30
2023-05-06T12:13:52.266Z,9.52
2023-05-06T12:16:23.436Z,13.40
2023-05-06T12:18:55.988Z,7.07
2023-05-06T12:21:29.630Z,6.95
2023-05-06T12:24:02.471Z,11.05
2023-05-06T12:26:46.472Z,11.38
2023-05-06T12:29:20.372Z,8.32
2023-05-06T12:31:51.821Z,9.75
2023-05-06T12:34:39.759Z,12.50
2023-05-06T12:37:14.646Z,12.48
2023-05-06T12:39:45.338Z,12.40
2023-05-06T12:42:23.571Z,8.40
2023-05-06T12:44:56.989Z,6.40
2023-05-06T12:47:28.967Z,6.57
2023-05-06T12:50:01.222Z,19.65
2023-05-06T12:52:34.841Z,16.95
2023-05-06T12:55:05.574Z,11.68
2023-05-06T12:57:36.452Z,10.70
2023-05-06T13:00:08.934Z,9.30
2023-05-06T13:02:39.780Z,9.25
2023-05-06T13:05:11.203Z,8.85
2023-05-06T13:07:44.995Z,8.77
2023-05-06T13:10:16.328Z,9.73
2023-05-06T13:12:47.216Z,8.88
2023-05-06T13:15:18.053Z,9.43
2023-05-06T13:17:48.827Z,7.93
2023-05-06T13:20:21.612Z,7.78
2023-05-06T13:22:55.392Z,15.45
2023-05-06T13:25:26.376Z,6.28
2023-05-06T13:27:57.236Z,6.95
2023-05-06T13:30:28.204Z,6.88
2023-05-06T13:32:59.444Z,8.20
2023-05-06T13:35:30.845Z,6.47
2023-05-06T13:38:04.227Z,9.38
2023-05-06T13:40:34.953Z,9.13
2023-05-06T13:43:05.888Z,10.77
2023-05-06T13:45:36.891Z,6.38
2023-05-06T13:48:07.837Z,7.72
2023-05-06T13:50:39.181Z,6.35
2023-05-06T13:53:12.636Z,7.20
2023-05-06T13:55:44.016Z,7.30
2023-05-06T13:58:14.901Z,7.25
2023-05-06T14:00:45.650Z,7.95
2023-05-06T14:03:16.471Z,10.13
2023-05-06T14:05:47.324Z,7.20
2023-05-06T14:08:21.018Z,6.82
2023-05-06T14:10:51.874Z,5.10
2023-05-06T14:13:22.864Z,8.68
2023-05-06T14:15:53.806Z,6.03
2023-05-06T14:18:26.521Z,7.65
2023-05-06T14:20:57.503Z,7.97
2023-05-06T14:23:31.014Z,8.80
2023-05-06T14:26:01.734Z,5.15
2023-05-06T14:28:32.561Z,17.10
2023-05-06T14:31:03.362Z,7.35
2023-05-06T14:33:34.212Z,7.57
2023-05-06T14:36:04.882Z,6.80
2023-05-06T14:38:38.106Z,7.65
2023-05-06T14:41:08.936Z,6.28
2023-05-06T14:43:40.185Z,7.68
2023-05-06T14:46:11.600Z,6.93
2023-05-06T14:48:42.532Z,8.70
2023-05-06T14:51:13.514Z,10.85
2023-05-06T14:53:47.052Z,9.68
2023-05-06T14:56:17.832Z,8.40
2023-05-06T14:58:48.615Z,8.15
2023-05-06T15:01:19.299Z,11.32
2023-05-06T15:03:51.168Z,6.20
2023-05-06T15:06:22.074Z,10.68
2023-05-06T15:08:55.522Z,9.38
2023-05-06T15:11:26.287Z,7.18
2023-05-06T15:13:57.106Z,9.50
2023-05-06T15:16:28.115Z,11.07
2023-05-06T15:18:59.074Z,10.43
2023-05-06T15:21:29.897Z,5.55
2023-05-06T15:24:04.806Z,6.55
2023-05-06T15:26:38.641Z,8.63
2023-05-06T15:29:09.459Z,6.97
2023-05-06T15:31:41.374Z,8.93
2023-05-06T15:34:13.732Z,6.70
2023-05-06T15:36:44.817Z,10.13
2023-05-06T15:39:18.330Z,7.90
2023-05-06T15:41:51.101Z,8.73
2023-05-06T15:44:21.970Z,9.40
2023-05-06T15:46:52.700Z,12.45
2023-05-06T15:49:45.438Z,14.88
2023-05-06T15:52:14.380Z,8.10
2023-05-06T15:54:49.896Z,9.88
2023-05-06T15:57:21.209Z,10.52
2023-05-06T15:59:52.102Z,11.68
2023-05-06T16:02:26.844Z,6.85
2023-05-06T16:04:58.624Z,11.93
2023-05-06T16:07:30.253Z,13.45
2023-05-06T16:10:03.809Z,9.65
2023-05-06T16:12:35.256Z,8.48
2023-05-06T16:15:06.167Z,10.98
2023-05-06T16:17:38.182Z,8.05
2023-05-06T16:20:13.188Z,9.38
2023-05-06T16:22:44.273Z,10.30
2023-05-06T16:25:17.881Z,13.02
2023-05-06T16:27:48.607Z,8.25
2023-05-06T16:30:19.803Z,9.90
2023-05-06T16:32:50.709Z,10.65
2023-05-06T16:35:21.710Z,13.20
2023-05-06T16:37:52.460Z,7.80
2023-05-06T16:40:26.110Z,7.93
2023-05-06T16:42:56.983Z,13.15
2023-05-06T16:45:27.900Z,11.82
2023-05-06T16:47:58.690Z,11.45
2023-05-06T16:50:29.462Z,12.05
2023-05-06T16:53:00.163Z,13.30
2023-05-06T16:55:33.569Z,13.07
2023-05-06T16:58:04.529Z,13.52
2023-05-06T17:00:35.377Z,16.05
2023-05-06T17:03:06.178Z,10.25
2023-05-06T17:05:37.056Z,9.75
2023-05-06T17:08:08.507Z,12.95
2023-05-06T17:10:43.839Z,13.60
2023-05-06T17:15:45.049Z,15.35
2023-05-06T17:18:15.958Z,14.13
2023-05-06T17:20:55.028Z,16.67
2023-05-06T17:23:27.411Z,14.18
2023-05-06T17:26:01.803Z,16.67
2023-05-06T17:28:32.500Z,15.23
2023-05-06T17:31:03.243Z,13.30
2023-05-06T17:33:34.013Z,14.13
2023-05-06T17:36:04.805Z,13.73
2023-05-06T17:38:35.592Z,14.88
2023-05-06T17:41:09.241Z,13.10
2023-05-06T17:43:39.963Z,18.20
2023-05-06T17:46:10.812Z,10.55
2023-05-06T17:48:41.607Z,9.75
2023-05-06T17:51:12.442Z,8.50
2023-05-06T17:53:43.103Z,12.75
2023-05-06T17:56:16.938Z,10.70
2023-05-06T17:58:47.680Z,13.32
2023-05-06T18:01:18.450Z,14.27
2023-05-06T18:03:49.481Z,13.50
2023-05-06T18:06:20.353Z,13.48
2023-05-06T18:08:51.049Z,15.60
2023-05-06T18:11:24.392Z,16.60
2023-05-06T18:13:57.630Z,16.10
2023-05-06T18:16:28.610Z,15.50
2023-05-06T18:19:01.164Z,12.60
2023-05-06T18:21:32.102Z,12.13
2023-05-06T18:24:15.218Z,12.55
2023-05-06T18:26:49.063Z,12.88
2023-05-06T18:29:19.879Z,12.07
2023-05-06T18:31:50.771Z,10.05
2023-05-06T18:34:21.739Z,13.57
2023-05-06T18:36:52.475Z,13.57
2023-05-06T18:39:25.767Z,11.88
2023-05-06T18:41:59.485Z,12.82
2023-05-06T18:44:30.222Z,12.05
2023-05-06T18:47:00.879Z,16.52
2023-05-06T18:49:32.027Z,12.90
2023-05-06T18:52:02.799Z,13.43
2023-05-06T18:54:33.617Z,12.93
2023-05-06T18:57:07.151Z,14.43
2023-05-06T18:59:38.005Z,17.77
2023-05-06T19:02:08.746Z,12.57
2023-05-06T19:04:39.774Z,12.68
2023-05-06T19:07:10.835Z,14.23
2023-05-06T19:09:42.622Z,16.88
2023-05-06T19:12:16.325Z,16.88
2023-05-06T19:14:47.170Z,19.08
2023-05-06T19:17:17.955Z,28.10
2023-05-06T19:19:49.484Z,15.85
2023-05-06T19:22:20.281Z,13.65
2023-05-06T19:24:51.050Z,15.98
2023-05-06T19:27:24.400Z,17.95
2023-05-06T19:29:55.477Z,13.98
2023-05-06T19:32:26.171Z,11.98
2023-05-06T19:34:56.959Z,14.85
2023-05-06T19:37:30.379Z,13.55
2023-05-06T19:40:01.222Z,14.07
2023-05-06T19:42:37.626Z,11.10
2023-05-06T19:45:12.318Z,12.00
2023-05-06T19:47:44.997Z,11.05
2023-05-06T19:50:16.007Z,10.68
2023-05-06T19:52:46.633Z,10.80
2023-05-06T19:55:18.727Z,11.88
2023-05-06T19:57:53.531Z,17.02
2023-05-06T20:00:25.851Z,12.55
2023-05-06T20:02:57.098Z,12.05
2023-05-06T20:05:29.917Z,12.75
2023-05-06T20:08:00.946Z,12.13
2023-05-06T20:10:31.835Z,12.05
2023-05-06T20:13:05.474Z,11.10
2023-05-06T20:15:36.674Z,10.93
2023-05-06T20:18:07.906Z,12.88
2023-05-06T20:20:40.206Z,11.73
2023-05-06T20:23:10.919Z,13.48
2023-05-06T20:25:41.825Z,14.93
2023-05-06T20:28:15.169Z,10.77
2023-05-06T20:30:46.001Z,11.43
2023-05-06T20:33:16.935Z,11.77
2023-05-06T20:35:48.399Z,11.85
2023-05-06T20:38:19.798Z,10.82
2023-05-06T20:40:50.829Z,12.25
2023-05-06T20:43:24.161Z,11.10
2023-05-06T20:45:54.947Z,10.82
2023-05-06T20:48:28.054Z,11.65
2023-05-06T20:50:58.915Z,10.05
2023-05-06T20:53:29.841Z,10.07
2023-05-06T20:56:00.661Z,9.98
2023-05-06T20:58:33.960Z,10.80
2023-05-06T21:01:06.283Z,9.52
2023-05-06T21:03:37.004Z,12.90
2023-05-06T21:06:07.967Z,11.00
2023-05-06T21:08:38.815Z,10.25
2023-05-06T21:11:09.671Z,10.90
2023-05-06T21:13:43.425Z,11.23
2023-05-06T21:16:14.379Z,10.73
2023-05-06T21:18:45.266Z,11.63
2023-05-06T21:21:16.303Z,11.20
2023-05-06T21:23:47.097Z,9.32
2023-05-06T21:26:18.101Z,9.68
2023-05-06T21:28:52.349Z,9.43
2023-05-06T21:31:23.804Z,8.53
2023-05-06T21:33:58.174Z,10.73
2023-05-06T21:36:29.276Z,9.45
2023-05-06T21:39:04.140Z,9.05
2023-05-06T21:41:35.800Z,14.35
2023-05-06T21:44:11.943Z,9.35
2023-05-06T21:46:43.135Z,12.57
2023-05-06T21:49:13.964Z,9.40
2023-05-06T21:51:44.718Z,9.18
2023-05-06T21:54:15.511Z,11.30
2023-05-06T21:56:46.699Z,8.68
2023-05-06T21:59:20.103Z,10.52
2023-05-06T22:01:51.279Z,7.57
2023-05-06T22:04:22.042Z,9.75
2023-05-06T22:06:52.927Z,9.13
2023-05-06T22:09:23.834Z,7.88
2023-05-06T22:11:55.007Z,8.23
2023-05-06T22:14:37.357Z,8.80
2023-05-06T22:17:12.761Z,10.27
2023-05-06T22:19:43.993Z,7.32
2023-05-06T22:22:15.225Z,9.90
2023-05-06T22:24:46.177Z,10.35
2023-05-06T22:27:17.110Z,9.40
2023-05-06T22:29:50.380Z,10.00
2023-05-06T22:32:21.953Z,6.70
2023-05-06T22:34:52.751Z,7.82
2023-05-06T22:37:23.830Z,9.60
2023-05-06T22:39:54.657Z,9.55
2023-05-06T22:42:25.383Z,9.70
2023-05-06T22:44:58.748Z,8.48
2023-05-06T22:47:29.693Z,7.82
2023-05-06T22:50:00.403Z,8.32
2023-05-06T22:52:31.219Z,7.90
2023-05-06T22:55:02.039Z,8.32
2023-05-06T22:57:34.605Z,11.07
2023-05-06T23:00:10.921Z,11.30
2023-05-06T23:02:41.729Z,9.18
2023-05-06T23:05:12.870Z,10.45
2023-05-06T23:07:43.761Z,7.82
2023-05-06T23:10:14.821Z,8.27
2023-05-06T23:12:45.809Z,9.77
2023-05-06T23:15:19.238Z,12.95
2023-05-06T23:17:50.574Z,11.57
2023-05-06T23:20:23.837Z,9.02
2023-05-06T23:22:54.858Z,11.10
2023-05-06T23:25:25.647Z,8.65
2023-05-06T23:27:56.904Z,10.75
2023-05-06T23:30:30.335Z,8.77
2023-05-06T23:33:01.166Z,7.47
2023-05-06T23:35:32.000Z,8.18
2023-05-06T23:38:02.828Z,8.98
2023-05-06T23:40:33.648Z,6.68
2023-05-06T23:43:04.456Z,11.63
2023-05-06T23:45:37.738Z,9.60
2023-05-06T23:48:09.578Z,9.45
2023-05-06T23:50:42.346Z,9.73
2023-05-06T23:53:13.185Z,9.80
2023-05-06T23:55:44.286Z,8.27
2023-05-06T23:58:15.215Z,7.82
